< Typhoon 196733 1967 Season Typhoon 196735 >
Typhoon 196734 (DINAH)
General InformationTrack Information on Google Maps || Disaster Info.ResourceGoogle EarthGE AnimationAtom FeedGeoJSON
Detalied Best Track (Time Zone = UTC)
Year Month Day Hour Lat. Long. Pressure (hPa) Wind (kt) Class Image Chart
1967 10 16 00 8.5 148.5 1006 0 2 -- Chart
1967 10 16 06 9.2 149.0 1004 0 2 -- Chart
1967 10 16 12 10.0 149.2 1004 0 2 -- Chart
1967 10 16 18 11.0 149.1 1004 0 2 -- Chart
1967 10 17 00 11.9 148.1 1004 0 2 -- Chart
1967 10 17 06 12.3 147.0 997 0 9 -- Chart
1967 10 17 12 12.4 144.5 994 0 9 -- Chart
1967 10 17 18 12.2 143.0 990 0 9 -- Chart
1967 10 18 00 11.9 141.8 986 0 9 -- Chart
1967 10 18 06 11.7 140.6 982 0 9 -- Chart
1967 10 18 12 11.3 139.7 986 0 9 -- Chart
1967 10 18 18 10.8 139.4 990 0 9 -- Chart
1967 10 19 00 10.4 138.8 992 0 9 -- Chart
1967 10 19 06 10.5 138.2 996 0 9 -- Chart
1967 10 19 12 10.6 137.9 994 0 9 -- Chart
1967 10 19 18 11.0 137.5 990 0 9 -- Chart
1967 10 20 00 11.6 136.5 988 0 9 -- Chart
1967 10 20 06 12.4 135.7 988 0 9 -- Chart
1967 10 20 12 13.4 134.9 988 0 9 -- Chart
1967 10 20 18 14.1 134.0 988 0 9 -- Chart
1967 10 21 00 14.7 133.1 988 0 9 -- Chart
1967 10 21 06 15.8 132.3 984 0 9 -- Chart
1967 10 21 12 16.8 131.5 980 0 9 -- Chart
1967 10 21 18 17.3 131.0 972 0 9 -- Chart
1967 10 22 00 17.8 130.5 965 0 9 -- Chart
1967 10 22 06 18.8 130.3 960 0 9 -- Chart
1967 10 22 12 19.0 130.2 952 0 9 -- Chart
1967 10 22 18 19.9 130.2 950 0 9 -- Chart
1967 10 23 00 20.5 130.1 950 0 9 -- Chart
1967 10 23 06 21.2 130.1 950 0 9 -- Chart
1967 10 23 12 21.8 129.9 950 0 9 -- Chart
1967 10 23 18 22.5 129.7 950 0 9 -- Chart
1967 10 24 00 22.8 129.3 950 0 9 -- Chart
1967 10 24 06 23.0 129.0 950 0 9 -- Chart
1967 10 24 12 23.1 128.5 950 0 9 -- Chart
1967 10 24 18 23.1 128.2 950 0 9 -- Chart
1967 10 25 00 23.1 127.6 950 0 9 -- Chart
1967 10 25 06 23.1 127.3 950 0 9 -- Chart
1967 10 25 12 23.2 127.0 955 0 9 -- Chart
1967 10 25 18 23.4 126.9 960 0 9 -- Chart
1967 10 26 00 24.0 127.5 960 0 9 -- Chart
1967 10 26 06 24.5 128.0 962 0 9 -- Chart
1967 10 26 12 25.2 128.8 965 0 9 -- Chart
1967 10 26 18 26.3 129.9 967 0 9 -- Chart
1967 10 27 00 27.6 131.0 970 0 9 -- Chart
1967 10 27 06 30.0 132.9 970 0 9 -- Chart
1967 10 27 12 32.2 135.0 968 0 9 -- Chart
1967 10 27 18 34.6 137.0 968 0 9 -- Chart
1967 10 28 00 36.3 139.0 988 0 6 -- Chart
1967 10 28 06 38.8 141.0 987 0 6 -- Chart
1967 10 28 12 41.0 145.0 986 0 6 -- Chart
1967 10 28 18 42.0 146.5 984 0 6 -- Chart
1967 10 29 00 43.4 149.0 984 0 6 -- Chart
1967 10 29 06 45.0 152.0 984 0 6 -- Chart
1967 10 29 12 46.3 156.5 980 0 6 -- Chart
1967 10 29 18 48.0 161.5 978 0 6 -- Chart
1967 10 30 00 49.4 166.3 976 0 6 -- Chart
1967 10 30 06 50.4 169.0 970 0 6 -- Chart
1967 10 30 12 51.2 172.0 960 0 6 -- Chart
1967 10 30 18 51.9 174.2 960 0 6 -- Chart
1967 10 31 00 52.0 177.0 956 0 6 -- Chart
1967 10 31 06 52.3 180.0 956 0 6 -- Chart
1967 10 31 12 53.0 183.0 956 0 6 -- Chart
Japan Meteorological Agency Best Track Data | Correction Date : 1991-07-16
< Typhoon 196733 1967 Season Typhoon 196735 >

Help